createdAt,value
2018-09-10T00:00:02.735Z,0
2018-09-10T00:01:02.725Z,0
2018-09-10T00:02:02.481Z,0
2018-09-10T00:03:02.209Z,0
2018-09-10T00:04:02.721Z,0
2018-09-10T00:05:02.698Z,0
2018-09-10T00:06:02.691Z,0
2018-09-10T00:07:02.681Z,0
2018-09-10T00:08:02.423Z,0
2018-09-10T00:09:02.417Z,0
2018-09-10T00:10:02.407Z,0
2018-09-10T00:11:02.657Z,0
2018-09-10T00:12:02.646Z,0
2018-09-10T00:13:02.644Z,0
2018-09-10T00:14:02.378Z,0
2018-09-10T00:15:02.372Z,0
2018-09-10T00:16:02.615Z,0
2018-09-10T00:17:02.104Z,0
2018-09-10T00:18:02.352Z,0
2018-09-10T00:19:02.401Z,0
2018-09-10T00:20:02.585Z,0
2018-09-10T00:21:02.593Z,0
2018-09-10T00:22:02.328Z,0
2018-09-10T00:23:02.572Z,0
2018-09-10T00:24:02.066Z,0
2018-09-10T00:25:02.550Z,0
2018-09-10T00:26:02.543Z,0
2018-09-10T00:27:02.534Z,0
2018-09-10T00:28:02.281Z,0
2018-09-10T00:29:02.523Z,0
2018-09-10T00:30:02.515Z,0
2018-09-10T00:31:02.508Z,0
2018-09-10T00:32:02.258Z,0
2018-09-10T00:33:02.496Z,0
2018-09-10T00:34:02.485Z,0
2018-09-10T00:35:02.488Z,0
2018-09-10T00:36:02.216Z,0
2018-09-10T00:37:01.958Z,0
2018-09-10T00:38:02.451Z,0
2018-09-10T00:39:02.453Z,0
2018-09-10T00:40:02.440Z,0
2018-09-10T00:41:02.445Z,0
2018-09-10T00:42:02.178Z,0
2018-09-10T00:43:02.163Z,0
2018-09-10T00:44:02.414Z,0
2018-09-10T00:45:02.403Z,0
2018-09-10T00:46:02.393Z,0
2018-09-10T00:47:02.138Z,0
2018-09-10T00:48:02.389Z,0
2018-09-10T00:49:02.124Z,0
2018-09-10T00:50:02.111Z,0
2018-09-10T00:51:02.109Z,0
2018-09-10T00:52:02.358Z,0
2018-09-10T00:53:02.345Z,0
2018-09-10T00:54:02.340Z,0
2018-09-10T00:55:02.326Z,0
2018-09-10T00:56:02.069Z,0
2018-09-10T00:57:02.314Z,0
2018-09-10T00:58:02.308Z,0
2018-09-10T00:59:02.304Z,0
2018-09-10T01:00:02.308Z,0
2018-09-10T01:01:02.291Z,0
2018-09-10T01:02:02.276Z,0
2018-09-10T01:03:02.275Z,0
2018-09-10T01:04:02.271Z,0
2018-09-10T01:05:02.251Z,0
2018-09-10T01:06:02.251Z,0
2018-09-10T01:07:02.234Z,0
2018-09-10T01:08:01.987Z,0
2018-09-10T01:09:01.970Z,0
2018-09-10T01:10:01.968Z,0
2018-09-10T01:11:01.703Z,0
2018-09-10T01:12:02.198Z,0
2018-09-10T01:13:02.193Z,0
2018-09-10T01:14:01.932Z,0
2018-09-10T01:15:02.173Z,0
2018-09-10T01:16:02.168Z,0
2018-09-10T01:17:01.910Z,0
2018-09-10T01:18:01.903Z,0
2018-09-10T01:19:01.906Z,0
2018-09-10T01:20:02.138Z,0
2018-09-10T01:21:02.127Z,0
2018-09-10T01:22:01.620Z,0
2018-09-10T01:23:02.122Z,0
2018-09-10T01:24:02.106Z,0
2018-09-10T01:25:02.117Z,0
2018-09-10T01:26:02.095Z,0
2018-09-10T01:27:02.084Z,0
2018-09-10T01:28:02.085Z,0
2018-09-10T01:29:02.069Z,0
2018-09-10T01:30:01.807Z,0
2018-09-10T01:31:02.051Z,0
2018-09-10T01:32:02.046Z,0
2018-09-10T01:33:02.033Z,0
2018-09-10T01:34:02.041Z,0
2018-09-10T01:35:01.772Z,0
2018-09-10T01:36:02.011Z,0
2018-09-10T01:37:02.012Z,0
2018-09-10T01:38:01.999Z,0
2018-09-10T01:39:01.740Z,0
2018-09-10T01:40:01.985Z,0
2018-09-10T01:41:01.973Z,0
2018-09-10T01:42:01.969Z,0
2018-09-10T01:43:01.708Z,0
2018-09-10T01:44:01.963Z,0
2018-09-10T01:45:01.950Z,0
2018-09-10T01:46:01.686Z,0
2018-09-10T01:47:01.678Z,0
2018-09-10T01:48:01.674Z,0
2018-09-10T01:49:01.923Z,0
2018-09-10T01:50:01.908Z,0
2018-09-10T01:51:01.648Z,0
2018-09-10T01:52:01.899Z,0
2018-09-10T01:53:01.630Z,0
2018-09-10T01:54:01.877Z,0
2018-09-10T01:55:01.620Z,0
2018-09-10T01:56:01.355Z,0
2018-09-10T01:57:01.853Z,0
2018-09-10T01:58:01.844Z,0
2018-09-10T01:59:01.587Z,0
2018-09-10T02:00:01.575Z,0
2018-09-10T02:01:01.821Z,0
2018-09-10T02:02:01.819Z,0
2018-09-10T02:03:01.803Z,0
2018-09-10T02:04:01.548Z,0
2018-09-10T02:05:01.546Z,0
2018-09-10T02:06:01.530Z,0
2018-09-10T02:07:01.775Z,0
2018-09-10T02:08:01.765Z,0
2018-09-10T02:09:01.758Z,0
2018-09-10T02:10:01.750Z,0
2018-09-10T02:11:01.540Z,0
2018-09-10T02:12:01.236Z,4
2018-09-10T02:13:01.483Z,4
2018-09-10T02:14:01.719Z,4
2018-09-10T02:15:01.458Z,4
2018-09-10T02:16:01.214Z,4
2018-09-10T02:17:01.313Z,0
2018-09-10T02:18:01.440Z,0
2018-09-10T02:19:01.686Z,0
2018-09-10T02:20:01.422Z,0
2018-09-10T02:21:01.669Z,0
2018-09-10T02:22:01.405Z,0
2018-09-10T02:23:01.649Z,0
2018-09-10T02:24:01.394Z,0
2018-09-10T02:25:01.649Z,0
2018-09-10T02:26:01.376Z,0
2018-09-10T02:27:01.633Z,0
2018-09-10T02:28:01.801Z,0
2018-09-10T02:29:01.611Z,0
2018-09-10T02:30:01.596Z,0
2018-09-10T02:31:01.337Z,0
2018-09-10T02:32:01.331Z,0
2018-09-10T02:33:01.324Z,0
2018-09-10T02:34:01.065Z,0
2018-09-10T02:35:01.309Z,0
2018-09-10T02:36:01.555Z,0
2018-09-10T02:37:01.541Z,0
2018-09-10T02:38:01.543Z,0
2018-09-10T02:39:01.534Z,0
2018-09-10T02:40:01.522Z,0
2018-09-10T02:41:01.520Z,0
2018-09-10T02:42:01.004Z,0
2018-09-10T02:43:00.999Z,0
2018-09-10T02:44:00.989Z,0
2018-09-10T02:45:01.503Z,0
2018-09-10T02:46:01.224Z,0
2018-09-10T02:47:01.222Z,0
2018-09-10T02:48:01.213Z,0
2018-09-10T02:49:01.203Z,0
2018-09-10T02:50:01.196Z,0
2018-09-10T02:51:01.191Z,0
2018-09-10T02:52:01.183Z,0
2018-09-10T02:53:01.177Z,0
2018-09-10T02:54:01.167Z,0
2018-09-10T02:55:01.532Z,0
2018-09-10T02:56:01.162Z,0
2018-09-10T02:57:01.156Z,0
2018-09-10T02:58:01.139Z,0
2018-09-10T02:59:01.131Z,0
2018-09-10T03:00:01.126Z,0
2018-09-10T03:01:01.133Z,0
2018-09-10T03:02:01.110Z,0
2018-09-10T03:03:01.174Z,0
2018-09-10T03:04:01.097Z,0
2018-09-10T03:05:01.098Z,0
2018-09-10T03:06:00.830Z,0
2018-09-10T03:07:01.329Z,0
2018-09-10T03:08:01.067Z,0
2018-09-10T03:09:01.319Z,0
2018-09-10T03:10:01.317Z,0
2018-09-10T03:11:00.792Z,0
2018-09-10T03:12:01.041Z,0
2018-09-10T03:13:01.288Z,0
2018-09-10T03:14:01.024Z,0
2018-09-10T03:15:01.018Z,0
2018-09-10T03:16:01.266Z,0
2018-09-10T03:17:01.311Z,0
2018-09-10T03:18:01.354Z,0
2018-09-10T03:19:01.238Z,0
2018-09-10T03:20:00.729Z,0
2018-09-10T03:21:01.225Z,0
2018-09-10T03:22:00.966Z,0
2018-09-10T03:23:01.244Z,0
2018-09-10T03:24:01.382Z,0
2018-09-10T03:25:01.199Z,0
2018-09-10T03:26:01.211Z,0
2018-09-10T03:27:01.189Z,0
2018-09-10T03:28:01.178Z,0
2018-09-10T03:29:01.176Z,0
2018-09-10T03:30:01.171Z,0
2018-09-10T03:31:01.179Z,0
2018-09-10T03:32:01.150Z,0
2018-09-10T03:33:01.141Z,0
2018-09-10T03:34:01.134Z,0
2018-09-10T03:35:01.143Z,0
2018-09-10T03:36:01.124Z,0
2018-09-10T03:37:00.869Z,0
2018-09-10T03:38:00.853Z,0
2018-09-10T03:39:01.104Z,0
2018-09-10T03:40:01.091Z,0
2018-09-10T03:41:01.093Z,0
2018-09-10T03:42:01.076Z,0
2018-09-10T03:43:01.078Z,0
2018-09-10T03:44:01.065Z,0
2018-09-10T03:45:01.057Z,0
2018-09-10T03:46:01.045Z,0
2018-09-10T03:47:01.061Z,0
2018-09-10T03:48:00.780Z,0
2018-09-10T03:49:01.030Z,0
2018-09-10T03:50:00.516Z,0
2018-09-10T03:51:01.015Z,0
2018-09-10T03:52:01.026Z,0
2018-09-10T03:53:00.997Z,4
2018-09-10T03:54:00.996Z,4
2018-09-10T03:55:00.988Z,0
2018-09-10T03:56:00.975Z,4
2018-09-10T03:57:00.980Z,4
2018-09-10T03:58:00.966Z,4
2018-09-10T03:59:00.449Z,4
2018-09-10T04:00:00.950Z,4
2018-09-10T04:01:00.938Z,4
2018-09-10T04:02:00.933Z,8
2018-09-10T04:03:00.929Z,12
2018-09-10T04:04:00.916Z,12
2018-09-10T04:05:00.914Z,16
2018-09-10T04:06:00.902Z,16
2018-09-10T04:07:00.897Z,16
2018-09-10T04:08:00.902Z,20
2018-09-10T04:09:00.627Z,24
2018-09-10T04:10:00.621Z,28
2018-09-10T04:11:00.865Z,32
2018-09-10T04:12:00.861Z,36
2018-09-10T04:13:00.854Z,44
2018-09-10T04:14:00.889Z,48
2018-09-10T04:15:00.831Z,56
2018-09-10T04:16:00.826Z,64
2018-09-10T04:17:00.864Z,76
2018-09-10T04:18:00.558Z,92
2018-09-10T04:19:00.806Z,104
2018-09-10T04:20:00.546Z,120
2018-09-10T04:21:00.535Z,140
2018-09-10T04:22:00.780Z,164
2018-09-10T04:23:00.521Z,184
2018-09-10T04:24:00.766Z,212
2018-09-10T04:25:00.510Z,244
2018-09-10T04:26:00.655Z,276
2018-09-10T04:27:00.499Z,304
2018-09-10T04:28:00.736Z,336
2018-09-10T04:29:00.477Z,368
2018-09-10T04:30:00.721Z,400
2018-09-10T04:31:00.464Z,432
2018-09-10T04:32:00.457Z,468
2018-09-10T04:33:00.729Z,504
2018-09-10T04:34:00.699Z,544
2018-09-10T04:35:00.436Z,588
2018-09-10T04:36:00.888Z,632
2018-09-10T04:37:00.167Z,680
2018-09-10T04:38:00.670Z,728
2018-09-10T04:39:00.659Z,776
2018-09-10T04:40:00.652Z,828
2018-09-10T04:41:00.644Z,884
2018-09-10T04:42:00.392Z,944
2018-09-10T04:43:00.384Z,1008
2018-09-10T04:44:00.423Z,1080
2018-09-10T04:45:00.111Z,1144
2018-09-10T04:46:00.605Z,1212
2018-09-10T04:47:00.596Z,1280
2018-09-10T04:48:00.593Z,1348
2018-09-10T04:49:00.333Z,1420
2018-09-10T04:50:00.713Z,1488
2018-09-10T04:51:00.576Z,1572
2018-09-10T04:52:00.564Z,1684
2018-09-10T04:53:00.559Z,1872
2018-09-10T04:54:00.546Z,2108
2018-09-10T04:55:00.354Z,2320
2018-09-10T04:56:00.284Z,2464
2018-09-10T04:57:00.533Z,2620
2018-09-10T04:58:00.278Z,2760
2018-09-10T04:59:00.515Z,2916
2018-09-10T05:00:00.511Z,3076
2018-09-10T05:01:00.505Z,3012
2018-09-10T05:02:00.499Z,2612
2018-09-10T05:03:00.487Z,2744
2018-09-10T05:04:00.477Z,3416
2018-09-10T05:05:00.484Z,3656
2018-09-10T05:06:00.466Z,3800
2018-09-10T05:07:00.462Z,4224
2018-09-10T05:08:00.205Z,4560
2018-09-10T05:09:00.196Z,4332
2018-09-10T05:10:00.913Z,3868
2018-09-10T05:11:00.433Z,3720
2018-09-10T05:12:00.183Z,3784
2018-09-10T05:12:59.972Z,3944
2018-09-10T05:13:59.918Z,4112
2018-09-10T05:15:00.426Z,4288
2018-09-10T05:16:00.410Z,4460
2018-09-10T05:17:00.408Z,4624
2018-09-10T05:18:00.149Z,4784
2018-09-10T05:18:59.894Z,4944
2018-09-10T05:20:00.387Z,5168
2018-09-10T05:21:00.132Z,5364
2018-09-10T05:22:00.393Z,5404
2018-09-10T05:23:00.378Z,5480
2018-09-10T05:24:00.115Z,5652
2018-09-10T05:25:00.111Z,5832
2018-09-10T05:26:00.381Z,5940
2018-09-10T05:27:00.359Z,6040
2018-09-10T05:28:00.488Z,6028
2018-09-10T05:28:59.846Z,5816
2018-09-10T05:30:00.343Z,5752
2018-09-10T05:31:00.088Z,5808
2018-09-10T05:32:00.329Z,5976
2018-09-10T05:33:00.330Z,6188
2018-09-10T05:34:00.319Z,6112
2018-09-10T05:35:00.323Z,6128
2018-09-10T05:36:00.314Z,6416
2018-09-10T05:37:00.053Z,6668
2018-09-10T05:38:00.305Z,6408
2018-09-10T05:39:00.295Z,6344
2018-09-10T05:39:59.788Z,6800
2018-09-10T05:41:00.035Z,7436
2018-09-10T05:42:00.036Z,7208
2018-09-10T05:43:00.282Z,7072
2018-09-10T05:44:00.274Z,7080
2018-09-10T05:45:00.276Z,7416
2018-09-10T05:46:00.274Z,7208
2018-09-10T05:47:00.007Z,7052
2018-09-10T05:48:00.261Z,7964
2018-09-10T05:49:00.251Z,8984
2018-09-10T05:50:00.271Z,8464
2018-09-10T05:51:00.243Z,8628
2018-09-10T05:51:59.989Z,8380
2018-09-10T05:52:59.729Z,7684
2018-09-10T05:54:00.230Z,6928
2018-09-10T05:55:00.231Z,6504
2018-09-10T05:55:59.977Z,6252
2018-09-10T05:57:00.234Z,6204
2018-09-10T05:57:59.964Z,6224
2018-09-10T05:59:00.222Z,6252
2018-09-10T06:00:00.216Z,6272
2018-09-10T06:01:00.209Z,6304
2018-09-10T06:02:00.200Z,6352
2018-09-10T06:03:00.204Z,6400
2018-09-10T06:03:59.943Z,6444
2018-09-10T06:05:00.190Z,6460
2018-09-10T06:05:59.686Z,6484
2018-09-10T06:07:00.182Z,6520
2018-09-10T06:08:00.176Z,6536
2018-09-10T06:09:00.193Z,6564
2018-09-10T06:10:00.177Z,6660
2018-09-10T06:10:59.924Z,7008
2018-09-10T06:11:59.660Z,7216
2018-09-10T06:12:59.916Z,7808
2018-09-10T06:14:00.156Z,8500
2018-09-10T06:15:00.154Z,9608
2018-09-10T06:15:59.902Z,8900
2018-09-10T06:17:00.146Z,8452
2018-09-10T06:17:59.939Z,8248
2018-09-10T06:19:00.143Z,8120
2018-09-10T06:20:00.145Z,8132
2018-09-10T06:21:00.143Z,7704
2018-09-10T06:21:59.878Z,7364
2018-09-10T06:23:00.141Z,7212
2018-09-10T06:24:00.120Z,7300
2018-09-10T06:25:00.147Z,8136
2018-09-10T06:26:00.124Z,8604
2018-09-10T06:26:59.856Z,10684
2018-09-10T06:28:00.104Z,18048
2018-09-10T06:29:00.103Z,17792
2018-09-10T06:30:00.105Z,18784
2018-09-10T06:31:00.094Z,19392
2018-09-10T06:32:00.091Z,18464
2018-09-10T06:33:00.087Z,14496
2018-09-10T06:34:00.131Z,18016
2018-09-10T06:35:00.086Z,17408
2018-09-10T06:36:00.078Z,16064
2018-09-10T06:37:00.155Z,14720
2018-09-10T06:38:00.080Z,11612
2018-09-10T06:39:00.077Z,10932
2018-09-10T06:40:00.068Z,13860
2018-09-10T06:40:59.819Z,16992
2018-09-10T06:42:00.071Z,17056
2018-09-10T06:43:00.060Z,22528
2018-09-10T06:43:59.810Z,24640
2018-09-10T06:45:00.063Z,24224
2018-09-10T06:46:00.066Z,25280
2018-09-10T06:46:59.805Z,25440
2018-09-10T06:48:00.190Z,27360
2018-09-10T06:49:00.056Z,28832
2018-09-10T06:50:00.070Z,28544
2018-09-10T06:52:00.059Z,31904
2018-09-10T06:53:00.064Z,31360
2018-09-10T06:54:00.061Z,31616
2018-09-10T06:54:59.806Z,32640
2018-09-10T06:56:00.072Z,32288
2018-09-10T06:57:00.071Z,31744
2018-09-10T06:58:00.077Z,34272
2018-09-10T06:58:59.815Z,35456
2018-09-10T07:00:00.071Z,33568
2018-09-10T07:00:59.831Z,31392
2018-09-10T07:02:00.084Z,30464
2018-09-10T07:02:59.831Z,30976
2018-09-10T07:03:59.839Z,32096
2018-09-10T07:04:59.844Z,31776
2018-09-10T07:05:59.601Z,28320
2018-09-10T07:06:59.853Z,27840
2018-09-10T07:07:59.861Z,32160
2018-09-10T07:09:00.129Z,32416
2018-09-10T07:09:59.877Z,33184
2018-09-10T07:10:59.880Z,35360
2018-09-10T07:12:00.138Z,39168
2018-09-10T07:13:00.175Z,38880
2018-09-10T07:13:59.901Z,38144
2018-09-10T07:14:59.911Z,37216
2018-09-10T07:16:00.166Z,37664
2018-09-10T07:16:59.924Z,39648
2018-09-10T07:18:00.184Z,41216
2018-09-10T07:19:00.577Z,41408
2018-09-10T07:20:00.200Z,45344
2018-09-10T07:20:59.958Z,52416
2018-09-10T07:21:59.713Z,54272
2018-09-10T07:22:59.974Z,53056
2018-09-10T07:24:00.235Z,53984
2018-09-10T07:25:00.245Z,57728
2018-09-10T07:26:00.260Z,57600
2018-09-10T07:27:00.267Z,54784
2018-09-10T07:28:00.021Z,56576
2018-09-10T07:29:00.282Z,59456
2018-09-10T07:30:00.294Z,60192
2018-09-10T07:31:00.308Z,61056
2018-09-10T07:31:59.810Z,60160
2018-09-10T07:33:00.336Z,59520
2018-09-10T07:33:59.833Z,60832
2018-09-10T07:35:00.350Z,62784
2018-09-10T07:36:00.356Z,63360
2018-09-10T07:37:00.371Z,61568
2018-09-10T07:38:00.381Z,61920
2018-09-10T07:39:00.139Z,61152
2018-09-10T07:40:00.403Z,58080
2018-09-10T07:41:00.426Z,58112
2018-09-10T07:42:00.435Z,53664
2018-09-10T07:43:00.438Z,43936
2018-09-10T07:44:01.219Z,38336
2018-09-10T07:45:00.462Z,35712
2018-09-10T07:46:00.479Z,40096
2018-09-10T07:47:00.492Z,39136
2018-09-10T07:48:00.501Z,36192
2018-09-10T07:49:00.864Z,39520
2018-09-10T07:50:00.270Z,47264
2018-09-10T07:51:00.534Z,49696
2018-09-10T07:52:00.296Z,44448
2018-09-10T07:53:00.305Z,36960
2018-09-10T07:54:00.332Z,38752
2018-09-10T07:55:00.128Z,40352
2018-09-10T07:56:00.595Z,38752
2018-09-10T07:57:00.603Z,36480
2018-09-10T07:58:00.611Z,38272
2018-09-10T07:59:00.632Z,43456
2018-09-10T08:00:00.127Z,44512
2018-09-10T08:01:00.654Z,37120
2018-09-10T08:02:00.405Z,31104
2018-09-10T08:03:00.268Z,32896
2018-09-10T08:04:00.677Z,38912
2018-09-10T08:05:00.433Z,38368
2018-09-10T08:06:00.446Z,37248
2018-09-10T08:07:00.211Z,41792
2018-09-10T08:08:00.461Z,45824
2018-09-10T08:09:00.521Z,42848
2018-09-10T08:10:00.484Z,36640
2018-09-10T08:11:00.490Z,37760
2018-09-10T08:12:00.763Z,36736
2018-09-10T08:13:00.513Z,16260
2018-09-10T08:14:00.778Z,5520
2018-09-10T08:15:00.795Z,5348
2018-09-10T08:16:00.799Z,5320
2018-09-10T08:17:00.553Z,5340
2018-09-10T08:18:00.560Z,5392
2018-09-10T08:19:00.565Z,5440
2018-09-10T08:20:00.825Z,5488
2018-09-10T08:21:00.829Z,5560
2018-09-10T08:22:00.583Z,5632
2018-09-10T08:23:00.593Z,5696
2018-09-10T08:24:00.936Z,5760
2018-09-10T08:25:00.896Z,5792
2018-09-10T08:26:00.366Z,5796
2018-09-10T08:27:00.866Z,5812
2018-09-10T08:28:00.877Z,5816
2018-09-10T08:29:00.875Z,5844
2018-09-10T08:30:00.632Z,5856
2018-09-10T08:31:00.639Z,5872
2018-09-10T08:32:00.912Z,5900
2018-09-10T08:33:00.895Z,5928
2018-09-10T08:34:00.651Z,5976
2018-09-10T08:35:00.656Z,6048
2018-09-10T08:36:00.659Z,6204
2018-09-10T08:37:00.656Z,6404
2018-09-10T08:38:00.920Z,6548
2018-09-10T08:39:00.667Z,6580
2018-09-10T08:40:00.665Z,6672
2018-09-10T08:41:00.674Z,6712
2018-09-10T08:42:00.923Z,6760
2018-09-10T08:43:00.936Z,6836
2018-09-10T08:44:00.686Z,6912
2018-09-10T08:45:00.933Z,6996
2018-09-10T08:46:00.935Z,7116
2018-09-10T08:47:00.950Z,7220
2018-09-10T08:48:00.434Z,7332
2018-09-10T08:49:00.688Z,7456
2018-09-10T08:50:00.952Z,7536
2018-09-10T08:51:00.947Z,7588
2018-09-10T08:52:00.954Z,7664
2018-09-10T08:53:00.955Z,7704
2018-09-10T08:54:01.023Z,7704
2018-09-10T08:55:03.034Z,7680
2018-09-10T08:56:01.520Z,7636
2018-09-10T08:57:00.960Z,7612
2018-09-10T08:58:00.712Z,7584
2018-09-10T08:59:00.957Z,7548
2018-09-10T09:00:00.960Z,7544
2018-09-10T09:01:00.968Z,7532
2018-09-10T09:02:01.094Z,7540
2018-09-10T09:03:00.973Z,7540
2018-09-10T09:04:00.720Z,7608
2018-09-10T09:05:00.966Z,7740
2018-09-10T09:06:01.288Z,7876
2018-09-10T09:07:01.017Z,8048
2018-09-10T09:08:00.920Z,8308
2018-09-10T09:09:00.722Z,8616
2018-09-10T09:10:00.980Z,8932
2018-09-10T09:11:00.975Z,9376
2018-09-10T09:12:00.221Z,9984
2018-09-10T09:13:00.733Z,10768
2018-09-10T09:14:00.730Z,11700
2018-09-10T09:15:00.979Z,12772
2018-09-10T09:16:00.744Z,13980
2018-09-10T09:17:00.480Z,15284
2018-09-10T09:18:00.986Z,16576
2018-09-10T09:19:00.746Z,17760
2018-09-10T09:20:00.990Z,18816
2018-09-10T09:21:00.993Z,19808
2018-09-10T09:22:00.743Z,20544
2018-09-10T09:23:01.082Z,21024
2018-09-10T09:24:00.754Z,21280
2018-09-10T09:25:01.004Z,21376
2018-09-10T09:26:01.003Z,21536
2018-09-10T09:27:01.010Z,21664
2018-09-10T09:28:01.014Z,21664
2018-09-10T09:29:01.027Z,21664
2018-09-10T09:30:01.230Z,21696
2018-09-10T09:31:01.022Z,21696
2018-09-10T09:32:01.021Z,21632
2018-09-10T09:33:00.782Z,21408
2018-09-10T09:34:00.779Z,21088
2018-09-10T09:35:00.786Z,20640
2018-09-10T09:36:01.041Z,20288
2018-09-10T09:37:01.048Z,19936
2018-09-10T09:38:01.059Z,19616
2018-09-10T09:39:00.802Z,19360
2018-09-10T09:40:01.058Z,19104
2018-09-10T09:41:00.557Z,18880
2018-09-10T09:42:00.814Z,18720
2018-09-10T09:43:01.073Z,18656
2018-09-10T09:44:01.080Z,18560
2018-09-10T09:45:00.586Z,18496
2018-09-10T09:46:00.854Z,18432
2018-09-10T09:47:00.837Z,18432
2018-09-10T09:48:00.845Z,18432
2018-09-10T09:49:00.854Z,18496
2018-09-10T09:50:00.852Z,18592
2018-09-10T09:51:00.947Z,18656
2018-09-10T09:52:01.125Z,18752
2018-09-10T09:53:01.122Z,18848
2018-09-10T09:54:00.875Z,18976
2018-09-10T09:55:00.883Z,19008
2018-09-10T09:56:00.891Z,19072
2018-09-10T09:57:00.896Z,19072
2018-09-10T09:58:01.156Z,19008
2018-09-10T09:59:01.161Z,18848
2018-09-10T10:00:01.177Z,18720
2018-09-10T10:01:01.188Z,18560
2018-09-10T10:02:01.173Z,18336
2018-09-10T10:03:01.182Z,18208
2018-09-10T10:04:01.253Z,18208
2018-09-10T10:05:00.686Z,18240
2018-09-10T10:06:00.950Z,18368
2018-09-10T10:07:01.249Z,18592
2018-09-10T10:08:01.204Z,18784
2018-09-10T10:09:01.212Z,18976
2018-09-10T10:10:01.220Z,19072
2018-09-10T10:11:01.222Z,19136
2018-09-10T10:12:01.090Z,19104
2018-09-10T10:13:00.979Z,19072
2018-09-10T10:14:01.239Z,18976
2018-09-10T10:15:00.995Z,18944
2018-09-10T10:16:01.252Z,18880
2018-09-10T10:17:01.262Z,18848
2018-09-10T10:18:01.268Z,18848
2018-09-10T10:19:01.273Z,18752
2018-09-10T10:20:00.768Z,18688
2018-09-10T10:21:01.033Z,18560
2018-09-10T10:22:01.180Z,18400
2018-09-10T10:23:01.038Z,18240
2018-09-10T10:24:01.044Z,18080
2018-09-10T10:25:01.305Z,17888
2018-09-10T10:26:01.056Z,17696
2018-09-10T10:27:01.062Z,17568
2018-09-10T10:28:01.357Z,17440
2018-09-10T10:29:01.322Z,17312
2018-09-10T10:30:01.333Z,17184
2018-09-10T10:31:01.343Z,17024
2018-09-10T10:32:01.343Z,16896
2018-09-10T10:33:01.345Z,16864
2018-09-10T10:34:01.099Z,16768
2018-09-10T10:35:01.105Z,16608
2018-09-10T10:36:01.112Z,16544
2018-09-10T10:37:01.370Z,16480
2018-09-10T10:38:01.372Z,16416
2018-09-10T10:39:01.131Z,16352
2018-09-10T10:40:01.394Z,16288
2018-09-10T10:41:01.139Z,16352
2018-09-10T10:42:01.149Z,16448
2018-09-10T10:43:01.152Z,13460
2018-09-10T10:44:01.408Z,13560
2018-09-10T10:45:00.908Z,13584
2018-09-10T10:46:01.418Z,13516
2018-09-10T10:47:01.425Z,13372
2018-09-10T10:48:00.928Z,13216
2018-09-10T10:49:01.181Z,13080
2018-09-10T10:50:01.447Z,12976
2018-09-10T10:51:01.456Z,13044
2018-09-10T10:52:01.455Z,13124
2018-09-10T10:53:01.453Z,13148
2018-09-10T10:54:01.269Z,13116
2018-09-10T10:55:01.468Z,13012
2018-09-10T10:56:01.474Z,12872
2018-09-10T10:57:01.237Z,12672
2018-09-10T10:58:01.485Z,12428
2018-09-10T10:59:01.496Z,12224
2018-09-10T11:00:01.246Z,12072
2018-09-10T11:01:01.507Z,12008
2018-09-10T11:02:01.503Z,12028
2018-09-10T11:03:01.002Z,12160
2018-09-10T11:04:01.312Z,12388
2018-09-10T11:05:01.517Z,12676
2018-09-10T11:06:01.522Z,13044
2018-09-10T11:07:01.523Z,13404
2018-09-10T11:08:01.533Z,13732
2018-09-10T11:09:01.534Z,14052
2018-09-10T11:10:01.542Z,14304
2018-09-10T11:11:01.291Z,14504
2018-09-10T11:12:01.550Z,14652
2018-09-10T11:13:01.566Z,14740
2018-09-10T11:14:01.571Z,14756
2018-09-10T11:15:01.060Z,14728
2018-09-10T11:16:01.569Z,14660
2018-09-10T11:17:01.327Z,14552
2018-09-10T11:18:01.326Z,14368
2018-09-10T11:19:01.577Z,14124
2018-09-10T11:20:01.336Z,13860
2018-09-10T11:21:01.606Z,13560
2018-09-10T11:22:01.594Z,13192
2018-09-10T11:23:01.092Z,12836
2018-09-10T11:24:01.358Z,12532
2018-09-10T11:25:01.606Z,12344
2018-09-10T11:26:01.359Z,12268
2018-09-10T11:27:01.628Z,12232
2018-09-10T11:28:01.114Z,15056
2018-09-10T11:29:01.639Z,15188
2018-09-10T11:30:01.629Z,15352
2018-09-10T11:31:01.383Z,15520
2018-09-10T11:32:01.642Z,15716
2018-09-10T11:33:01.651Z,16032
2018-09-10T11:34:01.403Z,16128
2018-09-10T11:35:01.151Z,16192
2018-09-10T11:36:01.412Z,16160
2018-09-10T11:37:01.415Z,16192
2018-09-10T11:38:01.413Z,16256
2018-09-10T11:39:01.415Z,16288
2018-09-10T11:40:01.677Z,16256
2018-09-10T11:41:01.430Z,16192
2018-09-10T11:42:01.441Z,16128
2018-09-10T11:43:01.691Z,16096
2018-09-10T11:44:01.188Z,15968
2018-09-10T11:45:01.702Z,15636
2018-09-10T11:46:01.449Z,15276
2018-09-10T11:47:01.454Z,14756
2018-09-10T11:48:01.708Z,14168
2018-09-10T11:49:01.467Z,13504
2018-09-10T11:50:01.727Z,12888
2018-09-10T11:51:01.474Z,12348
2018-09-10T11:52:01.736Z,11904
2018-09-10T11:53:01.481Z,11388
2018-09-10T11:54:01.737Z,10880
2018-09-10T11:55:01.747Z,10500
2018-09-10T11:56:01.499Z,10324
2018-09-10T11:57:01.501Z,10184
2018-09-10T11:58:01.517Z,10128
2018-09-10T11:59:01.512Z,10096
2018-09-10T12:00:01.520Z,10072
2018-09-10T12:01:01.522Z,10268
2018-09-10T12:02:01.839Z,10412
2018-09-10T12:03:01.531Z,10480
2018-09-10T12:04:01.530Z,10544
2018-09-10T12:05:01.801Z,10684
2018-09-10T12:06:01.800Z,10804
2018-09-10T12:07:01.544Z,11208
2018-09-10T12:08:01.808Z,11840
2018-09-10T12:09:01.803Z,12484
2018-09-10T12:10:01.564Z,13004
2018-09-10T12:11:01.571Z,13192
2018-09-10T12:12:01.564Z,13208
2018-09-10T12:13:01.318Z,13192
2018-09-10T12:14:01.825Z,13012
2018-09-10T12:15:01.578Z,12764
2018-09-10T12:16:01.580Z,12580
2018-09-10T12:17:02.275Z,12232
2018-09-10T12:18:01.591Z,11956
2018-09-10T12:19:01.595Z,11788
2018-09-10T12:20:01.851Z,11804
2018-09-10T12:21:01.606Z,11932
2018-09-10T12:22:01.356Z,12144
2018-09-10T12:23:01.360Z,12360
2018-09-10T12:24:01.869Z,12660
2018-09-10T12:25:01.624Z,13100
2018-09-10T12:26:01.877Z,13520
2018-09-10T12:27:01.629Z,13832
2018-09-10T12:28:01.635Z,14072
2018-09-10T12:29:01.898Z,14296
2018-09-10T12:30:01.647Z,14460
2018-09-10T12:31:01.647Z,14740
2018-09-10T12:32:01.661Z,15000
2018-09-10T12:33:01.657Z,15140
2018-09-10T12:34:01.915Z,15208
2018-09-10T12:35:01.722Z,15288
2018-09-10T12:36:01.922Z,15360
2018-09-10T12:37:01.926Z,15444
2018-09-10T12:38:01.931Z,15392
2018-09-10T12:39:01.943Z,15200
2018-09-10T12:40:01.956Z,14908
2018-09-10T12:41:01.950Z,14608
2018-09-10T12:42:01.951Z,14240
2018-09-10T12:43:01.703Z,13796
2018-09-10T12:44:01.956Z,13320
2018-09-10T12:45:01.964Z,12928
2018-09-10T12:46:01.720Z,12688
2018-09-10T12:47:01.466Z,12664
2018-09-10T12:48:01.472Z,12888
2018-09-10T12:49:01.729Z,13256
2018-09-10T12:50:01.807Z,13756
2018-09-10T12:51:02.056Z,14344
2018-09-10T12:52:01.992Z,15000
2018-09-10T12:53:01.999Z,15744
2018-09-10T12:54:01.749Z,16416
2018-09-10T12:55:02.019Z,16768
2018-09-10T12:56:02.014Z,16960
2018-09-10T12:57:02.026Z,17056
2018-09-10T12:58:02.023Z,17216
2018-09-10T12:59:02.097Z,17472
2018-09-10T13:00:01.786Z,17760
2018-09-10T13:01:01.786Z,17984
2018-09-10T13:02:02.049Z,18208
2018-09-10T13:03:02.047Z,18240
2018-09-10T13:04:02.073Z,18176
2018-09-10T13:05:02.061Z,17952
2018-09-10T13:06:01.816Z,17600
2018-09-10T13:07:02.078Z,17248
2018-09-10T13:08:02.070Z,16800
2018-09-10T13:09:02.079Z,16288
2018-09-10T13:10:02.087Z,15588
2018-09-10T13:11:01.583Z,15036
2018-09-10T13:12:01.842Z,14564
2018-09-10T13:13:02.098Z,14276
2018-09-10T13:14:01.848Z,14188
2018-09-10T13:15:02.110Z,14336
2018-09-10T13:16:01.615Z,14624
2018-09-10T13:17:02.125Z,14992
2018-09-10T13:18:01.622Z,15248
2018-09-10T13:19:02.133Z,15384
2018-09-10T13:20:01.884Z,15584
2018-09-10T13:21:02.153Z,15428
2018-09-10T13:22:01.894Z,15404
2018-09-10T13:23:02.153Z,15648
2018-09-10T13:24:01.922Z,15744
2018-09-10T13:25:01.908Z,15872
2018-09-10T13:26:02.166Z,16032
2018-09-10T13:27:02.171Z,16192
2018-09-10T13:28:01.680Z,16384
2018-09-10T13:29:02.188Z,16448
2018-09-10T13:30:01.941Z,16352
2018-09-10T13:31:02.197Z,16160
2018-09-10T13:32:02.201Z,16000
2018-09-10T13:33:02.206Z,15904